createdAt,value
2023-03-28T00:01:34.169Z,58.20
2023-03-28T00:06:38.088Z,44.10
2023-03-28T00:11:40.272Z,52.60
2023-03-28T00:16:45.230Z,54.40
2023-03-28T00:21:50.623Z,50.40
2023-03-28T00:26:53.994Z,48.90
2023-03-28T00:31:55.972Z,47.00
2023-03-28T00:36:57.952Z,51.70
2023-03-28T00:42:01.265Z,51.00
2023-03-28T00:47:03.288Z,65.90
2023-03-28T00:52:05.221Z,61.20
2023-03-28T00:57:09.107Z,60.40
2023-03-28T01:02:12.183Z,60.40
2023-03-28T01:07:15.967Z,53.90
2023-03-28T01:12:20.404Z,53.80
2023-03-28T01:17:23.622Z,66.60
2023-03-28T01:23:05.319Z,55.50
2023-03-28T01:28:48.364Z,51.20
2023-03-28T01:34:27.924Z,40.60
2023-03-28T01:39:57.925Z,28.80
2023-03-28T01:45:17.655Z,23.90
2023-03-28T01:50:26.999Z,31.00
2023-03-28T01:55:43.934Z,23.50
2023-03-28T02:00:54.137Z,18.20
2023-03-28T02:05:58.617Z,19.20
2023-03-28T02:11:01.033Z,16.70
2023-03-28T02:16:06.948Z,19.10
2023-03-28T02:21:17.093Z,10.30
2023-03-28T02:26:21.332Z,11.70
2023-03-28T02:31:24.454Z,11.90
2023-03-28T02:41:52.643Z,12.90
2023-03-28T02:47:01.253Z,16.00
2023-03-28T02:52:39.715Z,17.40
2023-03-28T02:57:48.787Z,18.20
2023-03-28T03:02:51.919Z,17.00
2023-03-28T03:12:55.428Z,14.60
2023-03-28T03:17:58.490Z,15.40
2023-03-28T03:23:01.329Z,14.10
2023-03-28T03:28:03.604Z,17.10
2023-03-28T03:33:05.536Z,13.10
2023-03-28T03:38:08.071Z,19.50
2023-03-28T03:43:10.048Z,24.10
2023-03-28T03:48:12.235Z,19.00
2023-03-28T03:53:14.006Z,26.60
2023-03-28T03:58:15.688Z,27.00
2023-03-28T04:03:24.207Z,24.10
2023-03-28T04:08:27.326Z,21.00
2023-03-28T04:13:28.987Z,15.90
2023-03-28T04:18:30.841Z,14.20
2023-03-28T04:23:33.946Z,14.50
2023-03-28T04:28:38.814Z,14.50
2023-03-28T04:33:40.491Z,13.50
2023-03-28T04:38:45.340Z,22.00
2023-03-28T04:43:47.220Z,21.80
2023-03-28T04:48:49.304Z,19.40
2023-03-28T04:53:58.654Z,27.40
2023-03-28T04:59:00.423Z,22.20
2023-03-28T05:04:02.207Z,16.70
2023-03-28T05:09:04.706Z,23.80
2023-03-28T05:14:06.968Z,14.40
2023-03-28T05:19:09.663Z,7.90
2023-03-28T05:24:11.644Z,7.20
2023-03-28T05:29:13.622Z,9.70
2023-03-28T05:34:15.393Z,11.80
2023-03-28T05:39:17.276Z,14.60
2023-03-28T05:44:19.089Z,9.90
2023-03-28T05:49:20.921Z,8.70
2023-03-28T05:54:22.699Z,11.40
2023-03-28T05:59:24.474Z,8.00
2023-03-28T06:04:27.597Z,8.10
2023-03-28T06:09:31.007Z,9.30
2023-03-28T06:19:35.821Z,19.50
2023-03-28T06:24:39.078Z,14.10
2023-03-28T06:29:41.472Z,9.00
2023-03-28T06:34:43.454Z,10.00
2023-03-28T06:39:45.530Z,17.60
2023-03-28T06:44:47.828Z,11.70
2023-03-28T06:49:49.625Z,11.50
2023-03-28T06:54:51.786Z,19.80
2023-03-28T06:59:53.773Z,15.20
2023-03-28T07:04:56.050Z,22.90
2023-03-28T07:09:58.132Z,12.50
2023-03-28T07:15:00.005Z,7.80
2023-03-28T07:20:03.104Z,7.20
2023-03-28T07:25:05.819Z,11.20
2023-03-28T07:30:10.158Z,4.10
2023-03-28T07:35:12.834Z,8.20
2023-03-28T07:40:16.046Z,3.50
2023-03-28T07:45:18.028Z,2.90
2023-03-28T07:50:19.822Z,4.80
2023-03-28T07:55:21.593Z,4.40
2023-03-28T08:00:23.941Z,3.50
2023-03-28T08:05:26.280Z,3.30
2023-03-28T08:10:28.425Z,3.00
2023-03-28T08:15:30.386Z,3.70
2023-03-28T08:20:33.124Z,5.70
2023-03-28T08:25:35.016Z,3.30
2023-03-28T08:30:37.167Z,3.70
2023-03-28T08:35:39.588Z,2.20
2023-03-28T08:40:51.152Z,2.40
2023-03-28T08:45:59.381Z,4.40
2023-03-28T08:51:16.106Z,3.00
2023-03-28T08:56:18.196Z,3.00
2023-03-28T09:01:22.794Z,3.50
2023-03-28T09:06:53.188Z,2.60
2023-03-28T09:12:04.821Z,2.70
2023-03-28T09:17:22.323Z,2.50
2023-03-28T09:22:44.205Z,2.40
2023-03-28T09:28:22.090Z,4.60
2023-03-28T09:33:30.117Z,2.80
2023-03-28T09:38:40.895Z,4.20
2023-03-28T09:43:53.230Z,3.10
2023-03-28T09:48:56.182Z,3.80
2023-03-28T09:53:58.306Z,2.50
2023-03-28T09:59:03.050Z,2.00
2023-03-28T10:04:15.725Z,2.20
2023-03-28T10:14:37.967Z,3.20
2023-03-28T10:19:44.242Z,2.30
2023-03-28T10:24:47.881Z,5.30
2023-03-28T10:29:52.397Z,2.70
2023-03-28T10:35:08.611Z,2.60
2023-03-28T10:40:20.380Z,3.80
2023-03-28T10:45:34.994Z,2.60
2023-03-28T10:50:43.430Z,2.40
2023-03-28T10:56:00.067Z,2.30
2023-03-28T11:01:17.708Z,2.50
2023-03-28T11:06:28.167Z,2.70
2023-03-28T11:11:30.046Z,1.70
2023-03-28T11:16:47.179Z,2.20
2023-03-28T11:22:23.876Z,2.60
2023-03-28T11:27:42.441Z,3.20
2023-03-28T11:32:51.502Z,6.10
2023-03-28T11:38:21.913Z,2.80
2023-03-28T11:43:42.563Z,3.10
2023-03-28T11:49:11.458Z,2.00
2023-03-28T11:54:18.564Z,3.10
2023-03-28T11:59:28.318Z,1.90
2023-03-28T12:04:37.431Z,2.00
2023-03-28T12:09:58.823Z,3.50
2023-03-28T12:15:21.254Z,8.20
2023-03-28T12:20:32.372Z,8.30
2023-03-28T12:25:58.396Z,2.50
2023-03-28T12:31:32.770Z,3.00
2023-03-28T12:36:38.298Z,3.30
2023-03-28T12:41:40.785Z,1.90
2023-03-28T12:47:15.629Z,3.00
2023-03-28T12:52:34.319Z,5.20
2023-03-28T12:57:46.502Z,2.50
2023-03-28T13:03:05.306Z,5.50
2023-03-28T13:08:20.198Z,2.00
2023-03-28T13:13:59.115Z,5.50
2023-03-28T13:19:10.735Z,2.90
2023-03-28T13:24:24.923Z,7.80
2023-03-28T13:30:10.918Z,3.50
2023-03-28T13:35:44.961Z,3.10
2023-03-28T13:40:51.431Z,2.80
2023-03-28T13:46:02.584Z,2.50
2023-03-28T13:51:08.433Z,6.80
2023-03-28T13:56:24.424Z,2.40
2023-03-28T14:01:45.590Z,2.60
2023-03-28T14:06:50.580Z,3.70
2023-03-28T14:11:55.729Z,227.60
2023-03-28T14:17:01.284Z,24.10
2023-03-28T14:22:07.256Z,3.90
2023-03-28T14:27:14.521Z,3.20
2023-03-28T14:32:31.532Z,24.50
2023-03-28T14:37:34.598Z,2.80
2023-03-28T14:42:36.634Z,3.30
2023-03-28T14:47:41.969Z,5.90
2023-03-28T14:52:44.427Z,3.40
2023-03-28T14:57:50.605Z,1.70
2023-03-28T15:02:53.479Z,2.00
2023-03-28T15:08:00.921Z,2.40
2023-03-28T15:13:19.486Z,2.20
2023-03-28T15:18:28.324Z,15.00
2023-03-28T15:23:57.436Z,6.00
2023-03-28T15:29:00.748Z,4.70
2023-03-28T15:34:09.982Z,4.60
2023-03-28T15:39:26.196Z,36.70
2023-03-28T15:44:34.505Z,30.90
2023-03-28T15:49:37.774Z,6.80
2023-03-28T15:54:44.338Z,86.10
2023-03-28T15:59:50.703Z,74.80
2023-03-28T16:05:22.586Z,5.50
2023-03-28T16:10:25.287Z,10.10
2023-03-28T16:15:27.772Z,5.70
2023-03-28T16:20:29.650Z,7.60
2023-03-28T16:25:31.454Z,4.50
2023-03-28T16:30:40.262Z,4.10
2023-03-28T16:35:42.606Z,5.40
2023-03-28T16:40:46.541Z,5.90
2023-03-28T16:45:49.762Z,6.00
2023-03-28T16:50:58.608Z,5.20
2023-03-28T16:56:01.874Z,12.00
2023-03-28T17:01:15.250Z,12.80
2023-03-28T17:11:23.341Z,10.00
2023-03-28T17:16:27.565Z,7.00
2023-03-28T17:21:30.611Z,13.10
2023-03-28T17:26:33.409Z,6.80
2023-03-28T17:31:37.471Z,16.30
2023-03-28T17:36:44.540Z,233.50
2023-03-28T17:41:50.026Z,52.40
2023-03-28T17:46:55.547Z,11.60
2023-03-28T17:51:59.455Z,10.80
2023-03-28T18:02:04.402Z,9.90
2023-03-28T18:07:15.779Z,4.30
2023-03-28T18:12:18.930Z,30.90
2023-03-28T18:17:22.866Z,22.40
2023-03-28T18:22:25.248Z,11.10
2023-03-28T18:27:27.940Z,36.00
2023-03-28T18:32:30.636Z,12.10
2023-03-28T18:37:34.038Z,1123.60
2023-03-28T18:42:36.674Z,1261.40
2023-03-28T18:47:40.687Z,453.50
2023-03-28T18:52:43.673Z,702.50
2023-03-28T18:57:46.176Z,187.00
2023-03-28T19:02:49.399Z,57.30
2023-03-28T19:07:52.518Z,169.60
2023-03-28T19:12:56.504Z,82.80
2023-03-28T19:18:01.585Z,248.60
2023-03-28T19:23:05.372Z,441.20
2023-03-28T19:28:10.947Z,193.80
2023-03-28T19:33:14.016Z,111.00
2023-03-28T19:43:20.916Z,378.40
2023-03-28T19:48:33.907Z,319.80
2023-03-28T19:53:46.246Z,323.30
2023-03-28T19:58:51.846Z,206.70
2023-03-28T20:03:54.796Z,263.00
2023-03-28T20:08:57.505Z,163.10
2023-03-28T20:14:00.454Z,347.30
2023-03-28T20:29:13.396Z,136.10
2023-03-28T20:34:15.479Z,122.20
2023-03-28T20:39:17.607Z,121.40
2023-03-28T20:44:20.568Z,63.90
2023-03-28T20:49:22.542Z,544.00
2023-03-28T20:54:27.394Z,292.80
2023-03-28T20:59:29.777Z,100.20
2023-03-28T21:04:32.240Z,67.50
2023-03-28T21:09:34.454Z,24.60
2023-03-28T21:14:36.327Z,33.80
2023-03-28T21:19:38.107Z,31.40
2023-03-28T21:24:40.087Z,46.00
2023-03-28T21:29:42.602Z,29.70
2023-03-28T21:34:45.065Z,68.20
2023-03-28T21:39:47.555Z,38.10
2023-03-28T21:44:49.428Z,35.50
2023-03-28T21:49:51.306Z,16.10
2023-03-28T21:54:53.697Z,8.70
2023-03-28T21:59:55.679Z,11.10
2023-03-28T22:04:57.561Z,7.10
2023-03-28T22:10:00.867Z,9.20
2023-03-28T22:15:03.158Z,4.90
2023-03-28T22:20:07.392Z,9.40
2023-03-28T22:25:13.004Z,6.50
2023-03-28T22:30:14.938Z,10.40
2023-03-28T22:35:17.011Z,10.50
2023-03-28T22:40:19.397Z,12.20
2023-03-28T22:45:22.709Z,9.60
2023-03-28T22:50:25.613Z,28.00
2023-03-28T22:55:28.102Z,17.10
2023-03-28T23:00:31.274Z,12.00
2023-03-28T23:05:33.251Z,17.80
2023-03-28T23:10:35.373Z,15.60
2023-03-28T23:15:37.354Z,17.90
2023-03-28T23:20:39.328Z,15.80
2023-03-28T23:25:41.206Z,11.30
2023-03-28T23:30:43.078Z,11.90
2023-03-28T23:35:46.857Z,15.80
2023-03-28T23:40:48.673Z,13.40
2023-03-28T23:45:50.820Z,12.60
2023-03-28T23:50:52.939Z,10.50
2023-03-28T23:55:55.120Z,14.50
